Time;durP1;ratioP1;P1;durP2;ratioP2;P2;SDS_P1;SDS_P2;PMS_P1;PMS_P2;Temp;Humidity;BMP_temperature;BMP_pressure;BME280_temperature;BME280_humidity;BME280_pressure;Samples;Min_cycle;Max_cycle;Signal;HPM_P1;HPM_P2
2022/11/17 00:01:41;;;;;;;23.15;2.80;;;12.30;99.90;;;;;;5063046;28;20024;-72
2022/11/17 00:04:07;;;;;;;18.73;2.47;;;12.20;99.90;;;;;;5058036;28;20083;-72
2022/11/17 00:06:33;;;;;;;22.92;2.63;;;12.20;99.90;;;;;;5057884;28;20043;-72
2022/11/17 00:08:58;;;;;;;22.23;2.95;;;12.20;99.90;;;;;;5049450;28;20041;-71
2022/11/17 00:11:24;;;;;;;25.35;3.22;;;12.20;99.90;;;;;;5049714;28;20040;-73
2022/11/17 00:16:34;;;;;;;23.48;2.97;;;12.20;99.90;;;;;;5066849;28;20093;-72
2022/11/17 00:21:44;;;;;;;21.75;3.50;;;12.30;99.90;;;;;;5051603;28;20110;-71
2022/11/17 00:24:14;;;;;;;26.27;3.10;;;12.30;99.90;;;;;;5066148;28;20444;-71
2022/11/17 00:27:00;;;;;;;24.30;3.25;;;12.30;99.90;;;;;;5049165;28;20035;-72
2022/11/17 00:29:25;;;;;;;26.90;3.65;;;12.20;99.90;;;;;;5068511;28;20123;-72
2022/11/17 00:34:35;;;;;;;22.38;3.05;;;12.20;99.90;;;;;;5066197;28;20075;-72
2022/11/17 00:37:01;;;;;;;29.10;3.85;;;12.20;99.90;;;;;;5047912;28;20581;-72
2022/11/17 00:39:26;;;;;;;23.83;3.58;;;12.10;99.90;;;;;;5065676;28;20040;-71
2022/11/17 00:41:52;;;;;;;24.83;3.80;;;12.10;99.90;;;;;;5067162;28;20025;-72
2022/11/17 00:44:17;;;;;;;28.55;3.60;;;12.20;99.90;;;;;;5067480;28;20090;-72
2022/11/17 00:46:43;;;;;;;34.42;4.55;;;12.20;99.90;;;;;;5048979;28;20372;-72
2022/11/17 00:49:10;;;;;;;32.20;3.55;;;12.30;99.90;;;;;;5067136;28;20033;-72
2022/11/17 00:51:36;;;;;;;31.77;4.68;;;12.30;99.90;;;;;;5047692;28;20082;-70
2022/11/17 00:54:03;;;;;;;30.30;3.75;;;12.30;99.90;;;;;;5066392;28;20047;-71
2022/11/17 00:56:29;;;;;;;24.42;3.35;;;12.40;99.90;;;;;;5065421;28;20486;-72
2022/11/17 00:58:55;;;;;;;32.50;4.43;;;12.40;99.90;;;;;;5066390;28;20025;-72
2022/11/17 01:01:21;;;;;;;28.13;3.38;;;12.40;99.90;;;;;;5066726;28;20029;-72
2022/11/17 01:03:47;;;;;;;28.85;3.25;;;12.30;99.90;;;;;;5066653;28;20033;-72
2022/11/17 01:06:16;;;;;;;35.10;3.83;;;12.30;99.90;;;;;;5048511;28;20512;-71
2022/11/17 01:08:42;;;;;;;27.08;4.30;;;12.30;99.90;;;;;;5065714;28;20040;-71
2022/11/17 01:11:12;;;;;;;34.63;3.92;;;12.30;99.90;;;;;;5047976;28;20047;-72
2022/11/17 01:13:39;;;;;;;27.02;4.38;;;12.30;99.90;;;;;;5066967;28;20107;-71
2022/11/17 01:16:08;;;;;;;31.42;4.00;;;12.20;99.90;;;;;;5066942;28;20040;-71
2022/11/17 01:18:35;;;;;;;23.98;4.63;;;12.30;99.90;;;;;;5047822;28;20556;-71
2022/11/17 01:21:10;;;;;;;27.05;4.25;;;12.20;99.90;;;;;;5066037;28;20055;-72
2022/11/17 01:23:40;;;;;;;25.63;4.13;;;12.20;99.90;;;;;;5066466;28;20037;-72
2022/11/17 01:26:09;;;;;;;29.77;3.58;;;12.20;99.90;;;;;;5048686;28;20461;-72
2022/11/17 01:28:36;;;;;;;33.42;3.85;;;12.20;99.90;;;;;;5048470;28;20028;-72
2022/11/17 01:31:05;;;;;;;24.85;3.58;;;12.30;99.90;;;;;;5065901;28;20112;-72
2022/11/17 01:33:31;;;;;;;22.75;3.15;;;12.30;99.90;;;;;;5066446;28;20037;-72
2022/11/17 01:36:02;;;;;;;20.02;4.00;;;12.30;99.90;;;;;;5047457;28;20033;-72
2022/11/17 01:38:28;;;;;;;20.58;3.63;;;12.30;99.90;;;;;;5065695;28;20486;-72
2022/11/17 01:40:55;;;;;;;25.33;4.15;;;12.30;99.90;;;;;;5054128;28;20028;-72
2022/11/17 01:43:47;;;;;;;24.27;3.50;;;12.30;99.90;;;;;;5072540;28;20028;-72
2022/11/17 01:46:39;;;;;;;22.88;3.33;;;12.30;99.90;;;;;;5065647;28;20047;-71
2022/11/17 01:49:21;;;;;;;21.13;2.78;;;12.30;99.90;;;;;;5031675;28;20036;-72
2022/11/17 01:51:52;;;;;;;20.10;3.03;;;12.30;99.90;;;;;;5066429;28;20032;-73
2022/11/17 01:54:22;;;;;;;21.38;3.67;;;12.30;99.90;;;;;;5052684;28;20047;-74
2022/11/17 01:56:51;;;;;;;13.93;2.65;;;12.30;99.90;;;;;;5050274;28;20031;-74
2022/11/17 01:59:27;;;;;;;13.37;2.33;;;12.20;99.90;;;;;;5066171;28;20032;-72
2022/11/17 02:01:54;;;;;;;14.60;2.40;;;12.00;99.90;;;;;;5065922;28;20051;-74
2022/11/17 02:04:35;;;;;;;11.43;2.50;;;11.90;99.90;;;;;;5052466;28;20028;-73
2022/11/17 02:07:25;;;;;;;10.77;2.67;;;11.70;99.90;;;;;;5055939;28;20024;-73
2022/11/17 02:09:55;;;;;;;8.85;2.40;;;11.60;99.90;;;;;;5068939;28;20028;-74
2022/11/17 02:12:24;;;;;;;10.43;2.63;;;11.50;99.90;;;;;;5069190;28;20380;-72
2022/11/17 02:14:50;;;;;;;9.23;3.25;;;11.40;99.90;;;;;;5069700;28;20569;-73
2022/11/17 02:17:17;;;;;;;8.32;3.25;;;11.30;99.90;;;;;;5069737;28;20090;-72
2022/11/17 02:19:48;;;;;;;7.35;3.35;;;11.10;99.90;;;;;;5070212;28;20055;-73
2022/11/17 02:22:23;;;;;;;7.50;2.97;;;10.90;99.90;;;;;;5070296;28;20036;-70
2022/11/17 02:25:07;;;;;;;8.20;2.35;;;10.80;99.90;;;;;;5069288;28;20035;-71
2022/11/17 02:27:38;;;;;;;9.48;2.88;;;10.80;99.90;;;;;;5048654;28;20060;-72
2022/11/17 02:30:13;;;;;;;5.68;2.40;;;10.70;99.90;;;;;;5037454;28;20039;-71
2022/11/17 02:32:50;;;;;;;5.10;2.33;;;10.70;99.90;;;;;;5069134;28;20131;-72
2022/11/17 02:35:30;;;;;;;4.95;1.90;;;10.60;99.90;;;;;;5068843;28;20032;-72
2022/11/17 02:38:17;;;;;;;4.85;1.95;;;10.50;99.90;;;;;;5068914;28;20895;-70
2022/11/17 02:41:04;;;;;;;2.58;1.08;;;10.40;99.90;;;;;;5068609;28;20036;-71
2022/11/17 02:44:04;;;;;;;1.60;0.70;;;10.30;99.90;;;;;;5069718;28;20037;-72
2022/11/17 02:46:41;;;;;;;2.80;0.50;;;10.20;99.90;;;;;;5032305;28;20083;-69
2022/11/17 02:49:24;;;;;;;1.92;0.40;;;10.00;99.90;;;;;;5049372;28;20071;-70
2022/11/17 02:51:55;;;;;;;1.13;0.40;;;9.90;99.90;;;;;;5031552;28;20517;-71
2022/11/17 02:54:22;;;;;;;1.00;0.38;;;9.80;99.90;;;;;;5049428;28;20585;-69
2022/11/17 02:56:48;;;;;;;1.65;0.30;;;9.80;99.90;;;;;;5048888;28;20102;-70
2022/11/17 02:59:17;;;;;;;1.05;0.20;;;9.70;99.90;;;;;;5055245;28;20032;-71
2022/11/17 03:02:07;;;;;;;2.00;0.30;;;9.70;99.90;;;;;;5068920;28;20027;-69
2022/11/17 03:04:57;;;;;;;0.98;0.30;;;9.70;99.90;;;;;;5069209;28;20035;-71
2022/11/17 03:07:35;;;;;;;0.40;0.20;;;9.60;99.90;;;;;;5049284;28;20060;-71
2022/11/17 03:10:16;;;;;;;1.95;0.30;;;9.60;99.90;;;;;;5031009;28;20036;-72
2022/11/17 03:12:47;;;;;;;1.80;0.30;;;9.50;99.90;;;;;;5054799;28;20032;-70
2022/11/17 03:15:21;;;;;;;1.25;0.20;;;9.50;99.90;;;;;;5066677;28;20098;-71
2022/11/17 03:17:59;;;;;;;0.50;0.17;;;9.50;99.90;;;;;;5077032;28;20044;-72
2022/11/17 03:20:43;;;;;;;0.82;0.30;;;9.40;99.90;;;;;;5049351;28;20050;-69
2022/11/17 03:23:36;;;;;;;0.20;0.20;;;9.40;99.90;;;;;;5068731;28;20082;-70
2022/11/17 03:26:09;;;;;;;3.08;0.30;;;9.40;99.90;;;;;;5059598;28;20036;-68
2022/11/17 03:28:36;;;;;;;0.52;0.30;;;9.40;99.90;;;;;;5069299;28;20043;-69
2022/11/17 03:31:05;;;;;;;1.67;0.40;;;9.40;99.90;;;;;;5076817;28;20745;-68
2022/11/17 03:33:33;;;;;;;0.95;0.40;;;9.40;99.90;;;;;;5068415;28;20036;-72
2022/11/17 03:36:32;;;;;;;0.40;0.40;;;9.40;99.90;;;;;;5050353;28;20089;-70
2022/11/17 03:39:07;;;;;;;0.70;0.30;;;9.40;99.90;;;;;;5066160;28;20626;-73
2022/11/17 03:41:38;;;;;;;2.65;0.73;;;9.40;99.90;;;;;;5068496;28;20032;-72
2022/11/17 03:44:05;;;;;;;0.43;0.40;;;9.40;99.90;;;;;;5066555;28;20035;-72
2022/11/17 03:46:33;;;;;;;0.60;0.30;;;9.40;99.90;;;;;;5067489;28;20074;-71
2022/11/17 03:49:11;;;;;;;0.55;0.40;;;9.40;99.90;;;;;;5049813;28;20033;-72
2022/11/17 03:51:37;;;;;;;1.60;0.40;;;9.40;99.90;;;;;;5052849;28;20044;-73
2022/11/17 03:54:03;;;;;;;0.40;0.25;;;9.40;99.90;;;;;;5064623;28;20028;-71
2022/11/17 03:56:49;;;;;;;1.17;0.57;;;9.40;99.90;;;;;;5066649;28;20037;-70
2022/11/17 03:59:22;;;;;;;3.17;0.60;;;9.30;99.90;;;;;;5052765;28;20036;-71
2022/11/17 04:01:47;;;;;;;0.50;0.30;;;9.40;99.90;;;;;;5066148;28;20098;-72
2022/11/17 04:04:16;;;;;;;1.08;0.45;;;9.30;99.90;;;;;;5066894;28;20029;-71
2022/11/17 04:06:42;;;;;;;1.00;0.38;;;9.30;99.90;;;;;;5048183;28;20095;-70
2022/11/17 04:09:07;;;;;;;1.08;0.40;;;9.40;99.90;;;;;;5052678;28;20677;-71
2022/11/17 04:17:01;;;;;;;2.90;0.93;;;9.40;99.90;;;;;;5063112;28;20098;-71
2022/11/17 04:19:27;;;;;;;2.45;0.90;;;9.30;99.90;;;;;;5066899;28;20430;-72
2022/11/17 04:21:52;;;;;;;2.63;0.80;;;9.40;99.90;;;;;;5068230;28;20056;-72
2022/11/17 04:24:18;;;;;;;2.22;1.00;;;9.40;99.90;;;;;;5053880;28;20783;-71
2022/11/17 04:29:27;;;;;;;2.92;1.00;;;9.30;99.90;;;;;;5065802;28;20134;-70
2022/11/17 04:31:53;;;;;;;4.32;1.38;;;9.30;99.90;;;;;;5060537;28;20048;-71
2022/11/17 04:34:19;;;;;;;2.30;1.00;;;9.30;99.90;;;;;;5066553;28;20398;-73
2022/11/17 04:36:45;;;;;;;2.97;0.90;;;9.30;99.90;;;;;;5066911;28;20025;-73
2022/11/17 04:39:12;;;;;;;3.58;1.20;;;9.30;99.90;;;;;;5065971;28;20043;-71
2022/11/17 04:41:56;;;;;;;2.17;0.90;;;9.30;99.90;;;;;;5058676;28;20082;-71
2022/11/17 04:44:30;;;;;;;3.10;1.20;;;9.30;99.90;;;;;;5048121;28;20032;-70
2022/11/17 04:46:56;;;;;;;2.72;1.10;;;9.30;99.90;;;;;;5049026;28;20025;-72
2022/11/17 04:49:24;;;;;;;2.22;1.08;;;9.30;99.90;;;;;;5066824;28;20857;-71
2022/11/17 04:51:51;;;;;;;3.80;1.30;;;9.30;99.90;;;;;;5048720;28;20706;-72
2022/11/17 04:54:19;;;;;;;3.13;1.10;;;9.30;99.90;;;;;;5066922;28;20119;-70
2022/11/17 04:56:45;;;;;;;6.13;1.33;;;9.30;99.90;;;;;;5066675;28;20036;-70
2022/11/17 04:59:11;;;;;;;2.53;1.02;;;9.30;99.90;;;;;;5066275;28;20838;-71
2022/11/17 05:01:37;;;;;;;3.33;1.60;;;9.30;99.90;;;;;;5044673;28;20050;-71
2022/11/17 05:04:08;;;;;;;4.00;1.35;;;9.20;99.90;;;;;;5047699;28;20063;-72
2022/11/17 05:06:43;;;;;;;2.53;1.20;;;9.30;99.90;;;;;;5046640;28;20397;-72
2022/11/17 05:09:15;;;;;;;3.70;1.40;;;9.20;99.90;;;;;;5046275;28;20035;-72
2022/11/17 05:14:27;;;;;;;3.65;1.17;;;9.20;99.90;;;;;;5046340;28;20072;-71
2022/11/17 05:17:04;;;;;;;3.42;1.20;;;9.20;99.90;;;;;;5050272;28;20086;-70
2022/11/17 05:19:33;;;;;;;2.60;1.00;;;9.20;99.90;;;;;;5048747;28;20034;-69
2022/11/17 05:21:59;;;;;;;3.47;1.00;;;9.20;99.90;;;;;;5066903;28;20433;-72
2022/11/17 05:24:25;;;;;;;2.08;1.15;;;9.20;99.90;;;;;;5065657;28;20368;-72
2022/11/17 05:26:51;;;;;;;2.85;1.10;;;9.20;99.90;;;;;;5065701;28;20061;-73
2022/11/17 05:29:19;;;;;;;2.40;0.90;;;9.10;99.90;;;;;;5047637;28;20032;-71
2022/11/17 05:31:45;;;;;;;4.65;1.25;;;9.10;99.90;;;;;;5047921;28;20127;-72
2022/11/17 05:34:13;;;;;;;5.53;0.90;;;9.10;99.90;;;;;;5065609;28;20021;-72
2022/11/17 05:36:39;;;;;;;3.85;1.23;;;9.10;99.90;;;;;;5065827;28;20103;-70
2022/11/17 05:39:06;;;;;;;3.35;1.20;;;9.10;99.90;;;;;;5065112;28;20028;-73
2022/11/17 05:41:32;;;;;;;3.85;0.77;;;9.10;99.90;;;;;;5047124;28;20135;-72
2022/11/17 05:43:57;;;;;;;3.58;0.95;;;9.10;99.90;;;;;;5064852;28;20636;-73
2022/11/17 05:46:24;;;;;;;3.63;0.90;;;9.10;99.90;;;;;;5065126;28;20487;-70
2022/11/17 05:48:51;;;;;;;2.78;0.70;;;9.10;99.90;;;;;;5064572;28;20044;-73
2022/11/17 05:51:19;;;;;;;5.20;0.95;;;9.10;99.90;;;;;;5046878;28;20132;-73
2022/11/17 05:53:45;;;;;;;3.20;0.98;;;9.10;99.90;;;;;;5065319;28;20039;-72
2022/11/17 05:56:29;;;;;;;4.05;0.98;;;9.10;99.90;;;;;;5065657;28;20032;-70
2022/11/17 05:59:09;;;;;;;3.08;0.80;;;9.10;99.90;;;;;;5066245;28;20089;-72
2022/11/17 06:01:41;;;;;;;1.52;0.60;;;9.00;99.90;;;;;;5066412;28;20032;-70
2022/11/17 06:04:07;;;;;;;1.85;0.57;;;9.00;99.90;;;;;;5065816;28;20052;-72
2022/11/17 06:06:35;;;;;;;1.98;0.80;;;9.00;99.90;;;;;;5065558;28;20033;-72
2022/11/17 06:09:01;;;;;;;3.95;0.60;;;9.00;99.90;;;;;;5065619;28;20119;-73
2022/11/17 06:11:26;;;;;;;3.28;0.70;;;9.00;99.90;;;;;;5047439;28;20044;-72
2022/11/17 06:13:52;;;;;;;4.97;0.60;;;9.00;99.90;;;;;;5065851;28;20031;-70
2022/11/17 06:16:22;;;;;;;2.25;0.60;;;9.00;99.90;;;;;;5065996;28;20095;-71
2022/11/17 06:19:12;;;;;;;3.58;0.77;;;8.90;99.90;;;;;;5066160;28;20123;-73
2022/11/17 06:21:37;;;;;;;1.38;0.52;;;9.00;99.90;;;;;;5043784;28;20025;-71
2022/11/17 06:24:06;;;;;;;3.05;0.60;;;8.90;99.90;;;;;;5054710;28;20099;-73
2022/11/17 06:26:32;;;;;;;2.67;0.63;;;8.90;99.90;;;;;;5062933;28;20067;-74
2022/11/17 06:28:58;;;;;;;3.28;0.60;;;8.90;99.90;;;;;;5032484;28;20037;-73
2022/11/17 06:31:26;;;;;;;3.17;0.40;;;8.90;99.90;;;;;;5041044;28;20040;-73
2022/11/17 06:33:52;;;;;;;3.17;0.50;;;8.80;99.90;;;;;;5075294;28;20033;-71
2022/11/17 06:36:18;;;;;;;2.72;0.50;;;8.80;99.90;;;;;;5040315;28;20115;-71
2022/11/17 06:38:44;;;;;;;1.65;0.40;;;8.80;99.90;;;;;;5042781;28;20131;-71
2022/11/17 06:41:09;;;;;;;4.78;0.73;;;8.80;99.90;;;;;;5065355;28;20024;-73
2022/11/17 06:43:35;;;;;;;2.85;0.50;;;8.80;99.90;;;;;;5046586;28;20390;-73
2022/11/17 06:46:03;;;;;;;1.70;0.50;;;8.80;99.90;;;;;;5046189;28;20037;-73
2022/11/17 06:48:28;;;;;;;3.03;0.60;;;8.80;99.90;;;;;;5064986;28;20112;-72
2022/11/17 06:50:55;;;;;;;2.83;0.50;;;8.80;99.90;;;;;;5067464;28;20050;-72
2022/11/17 06:53:22;;;;;;;2.72;0.50;;;8.70;99.90;;;;;;5068473;28;20041;-70
2022/11/17 06:58:29;;;;;;;1.65;0.50;;;8.70;99.90;;;;;;5067904;28;20024;-71
2022/11/17 07:01:01;;;;;;;2.35;0.80;;;8.70;99.90;;;;;;5062236;28;20090;-72
2022/11/17 07:03:26;;;;;;;1.73;0.40;;;8.60;99.90;;;;;;5066014;28;20121;-72
2022/11/17 07:05:52;;;;;;;4.45;0.60;;;8.70;99.90;;;;;;5051659;28;20136;-71
2022/11/17 07:08:21;;;;;;;3.20;0.77;;;8.70;99.90;;;;;;5060887;28;20055;-73
2022/11/17 07:10:53;;;;;;;2.78;0.80;;;8.70;99.90;;;;;;5062835;28;20028;-74
2022/11/17 07:13:22;;;;;;;4.35;0.88;;;8.70;99.90;;;;;;5050689;28;20122;-72
2022/11/17 07:15:49;;;;;;;5.20;1.10;;;8.70;99.90;;;;;;5069232;28;20032;-71
2022/11/17 07:18:19;;;;;;;2.55;0.82;;;8.70;99.90;;;;;;5066983;28;20378;-73
2022/11/17 07:20:46;;;;;;;4.43;1.17;;;8.70;99.90;;;;;;5072576;28;20587;-73
2022/11/17 07:23:12;;;;;;;4.97;0.90;;;8.80;99.90;;;;;;5061966;28;20155;-72
2022/11/17 07:25:37;;;;;;;4.03;1.10;;;8.80;99.90;;;;;;5068888;28;20582;-72
2022/11/17 07:28:03;;;;;;;6.18;1.48;;;8.80;99.90;;;;;;5071199;28;20029;-72
2022/11/17 07:30:29;;;;;;;4.63;1.17;;;8.90;99.90;;;;;;5067477;28;20036;-72
2022/11/17 07:32:56;;;;;;;5.57;1.30;;;8.90;99.90;;;;;;5064566;28;20501;-71
2022/11/17 07:35:22;;;;;;;6.10;1.42;;;9.00;99.90;;;;;;5060985;28;20028;-73
2022/11/17 07:37:47;;;;;;;5.40;1.50;;;9.00;99.90;;;;;;5045060;28;20021;-73
2022/11/17 07:40:13;;;;;;;6.03;1.63;;;9.00;99.90;;;;;;5062529;28;20158;-71
2022/11/17 07:42:39;;;;;;;4.95;1.42;;;9.10;99.90;;;;;;5041090;28;20033;-72
2022/11/17 07:45:06;;;;;;;7.38;1.70;;;9.10;99.90;;;;;;5066270;28;20410;-73
2022/11/17 07:47:32;;;;;;;6.82;1.65;;;9.10;99.90;;;;;;5060875;28;20436;-72
2022/11/17 07:49:57;;;;;;;3.42;1.25;;;9.20;99.90;;;;;;5061101;28;20029;-70
2022/11/17 07:52:23;;;;;;;5.43;1.55;;;9.20;99.90;;;;;;5066924;28;20043;-72
2022/11/17 07:54:49;;;;;;;3.97;1.30;;;9.20;99.90;;;;;;5068218;28;20024;-73
2022/11/17 07:57:14;;;;;;;5.72;1.67;;;9.20;99.90;;;;;;5066786;28;20040;-72
2022/11/17 07:59:40;;;;;;;4.68;1.35;;;9.30;99.90;;;;;;5066278;28;20028;-73
2022/11/17 08:02:05;;;;;;;5.85;1.60;;;9.30;99.90;;;;;;5062749;28;20055;-74
2022/11/17 08:04:31;;;;;;;3.75;1.70;;;9.30;99.90;;;;;;5042717;28;20078;-72
2022/11/17 08:06:56;;;;;;;6.78;1.20;;;9.40;99.90;;;;;;5065231;28;20526;-74
2022/11/17 08:09:22;;;;;;;5.35;1.42;;;9.40;99.90;;;;;;5059034;28;20037;-72
2022/11/17 08:11:48;;;;;;;5.35;1.60;;;9.40;99.90;;;;;;5043779;28;20068;-71
2022/11/17 08:14:13;;;;;;;3.58;1.10;;;9.40;99.90;;;;;;5044333;28;20475;-72
2022/11/17 08:16:39;;;;;;;3.25;1.23;;;9.40;99.90;;;;;;5061154;28;20044;-70
2022/11/17 08:19:05;;;;;;;4.65;1.50;;;9.40;99.90;;;;;;5041313;28;20058;-71
2022/11/17 08:21:30;;;;;;;3.47;1.17;;;9.40;99.90;;;;;;5040033;28;20024;-72
2022/11/17 08:23:56;;;;;;;5.95;1.20;;;9.50;99.90;;;;;;5064477;28;20082;-70
2022/11/17 08:26:25;;;;;;;5.13;1.50;;;9.50;99.90;;;;;;5064987;28;20024;-72
2022/11/17 08:28:50;;;;;;;3.13;1.33;;;9.60;99.90;;;;;;5061328;28;20038;-72
2022/11/17 08:31:16;;;;;;;4.05;1.20;;;9.60;99.90;;;;;;5063306;28;20319;-71
2022/11/17 08:33:41;;;;;;;3.67;1.27;;;9.60;99.90;;;;;;5047950;28;20127;-73
2022/11/17 08:36:07;;;;;;;5.90;1.52;;;9.60;99.90;;;;;;5066780;28;20029;-73
2022/11/17 08:38:33;;;;;;;4.45;1.27;;;9.70;99.90;;;;;;5047991;28;20368;-72
2022/11/17 08:41:02;;;;;;;3.92;1.10;;;9.70;99.90;;;;;;5065519;28;20039;-70
2022/11/17 08:43:28;;;;;;;4.35;1.45;;;9.80;99.90;;;;;;5065795;28;20084;-72
2022/11/17 08:45:54;;;;;;;3.03;1.13;;;9.80;99.90;;;;;;5064730;28;20037;-73
2022/11/17 08:48:20;;;;;;;4.82;1.40;;;10.00;99.90;;;;;;5049619;28;20692;-77
2022/11/17 08:50:47;;;;;;;5.85;1.50;;;10.20;99.90;;;;;;5058472;28;20036;-76
2022/11/17 08:53:14;;;;;;;5.07;1.38;;;10.10;99.90;;;;;;5046606;28;20044;-78
2022/11/17 08:55:40;;;;;;;7.63;1.65;;;10.10;99.90;;;;;;5035069;28;20029;-79
2022/11/17 08:58:05;;;;;;;6.15;1.63;;;10.10;99.90;;;;;;5028236;28;20031;-78
2022/11/17 09:00:31;;;;;;;6.75;1.30;;;10.20;99.90;;;;;;5045714;28;20040;-78
2022/11/17 09:02:56;;;;;;;4.28;1.45;;;10.20;99.90;;;;;;5054890;28;20493;-80
2022/11/17 09:05:23;;;;;;;3.83;1.30;;;10.30;99.90;;;;;;5065738;28;20043;-79
2022/11/17 09:07:50;;;;;;;3.88;1.20;;;10.40;99.90;;;;;;5066257;28;20054;-77
2022/11/17 09:10:15;;;;;;;5.55;1.52;;;10.60;99.90;;;;;;5054501;28;20040;-78
2022/11/17 09:12:41;;;;;;;5.15;1.40;;;10.70;99.90;;;;;;5048538;28;20063;-77
2022/11/17 09:15:08;;;;;;;4.38;1.23;;;11.10;99.90;;;;;;5066263;28;20397;-75
2022/11/17 09:17:34;;;;;;;4.47;1.27;;;11.30;99.90;;;;;;5058194;28;20045;-77
2022/11/17 09:20:00;;;;;;;7.03;1.80;;;11.80;99.90;;;;;;5047297;28;20056;-74
2022/11/17 09:22:26;;;;;;;6.57;1.48;;;12.00;99.90;;;;;;5066928;28;20086;-77
2022/11/17 09:24:51;;;;;;;5.35;1.30;;;12.00;99.90;;;;;;5049196;28;20036;-76
2022/11/17 09:27:17;;;;;;;4.90;1.70;;;12.00;99.90;;;;;;5055083;28;20029;-76
2022/11/17 09:29:42;;;;;;;7.00;1.60;;;11.90;99.90;;;;;;5046497;28;20037;-75
2022/11/17 09:32:12;;;;;;;5.75;1.40;;;11.70;99.90;;;;;;5066650;28;20037;-72
2022/11/17 09:34:42;;;;;;;5.47;1.20;;;11.70;99.90;;;;;;5060619;28;20107;-75
2022/11/17 09:37:08;;;;;;;4.25;1.42;;;11.60;99.90;;;;;;5063608;28;20103;-73
2022/11/17 09:39:33;;;;;;;4.45;1.52;;;11.60;99.90;;;;;;5065630;28;20111;-73
2022/11/17 09:42:00;;;;;;;4.90;1.48;;;11.30;99.90;;;;;;5065403;28;20070;-73
2022/11/17 09:44:52;;;;;;;6.07;1.40;;;11.30;99.90;;;;;;5066087;28;20027;-75
2022/11/17 09:47:20;;;;;;;4.35;1.52;;;11.20;99.90;;;;;;5064762;28;20074;-73
2022/11/17 09:49:58;;;;;;;3.05;1.05;;;11.40;99.90;;;;;;5046834;28;20028;-72
2022/11/17 09:53:02;;;;;;;4.95;1.30;;;11.50;99.90;;;;;;5054355;28;20119;-74
2022/11/17 09:55:27;;;;;;;4.90;1.25;;;11.90;99.90;;;;;;5065219;28;20490;-73
2022/11/17 09:58:21;;;;;;;5.05;1.30;;;11.70;99.90;;;;;;5066316;28;20029;-75
2022/11/17 10:00:49;;;;;;;5.65;1.45;;;11.70;99.90;;;;;;5065201;28;20036;-73
2022/11/17 10:03:33;;;;;;;4.53;1.20;;;11.90;99.90;;;;;;5065774;28;20032;-75
2022/11/17 10:06:03;;;;;;;5.80;1.10;;;12.30;99.90;;;;;;5065228;28;20024;-74
2022/11/17 10:08:50;;;;;;;3.55;1.00;;;12.50;99.90;;;;;;5065337;28;20054;-75
2022/11/17 10:11:31;;;;;;;4.72;1.20;;;12.30;99.90;;;;;;5046252;28;20028;-72
2022/11/17 10:14:02;;;;;;;2.97;1.30;;;12.00;99.90;;;;;;5065089;28;20033;-77
2022/11/17 10:16:29;;;;;;;5.47;1.30;;;12.00;99.90;;;;;;5065271;28;20028;-74
2022/11/17 10:18:54;;;;;;;4.85;0.98;;;11.90;99.90;;;;;;5066181;28;20103;-76
2022/11/17 10:21:20;;;;;;;5.03;1.25;;;12.00;99.90;;;;;;5047059;28;20588;-73
2022/11/17 10:23:55;;;;;;;7.28;1.20;;;11.90;99.90;;;;;;5065922;28;20046;-75
2022/11/17 10:26:21;;;;;;;5.38;1.20;;;12.00;99.90;;;;;;5047612;28;20036;-74
2022/11/17 10:28:47;;;;;;;4.47;1.42;;;11.90;99.90;;;;;;5064003;28;20363;-75
2022/11/17 10:31:17;;;;;;;4.18;1.10;;;11.80;99.90;;;;;;5066641;28;20037;-73
2022/11/17 10:33:49;;;;;;;4.82;1.30;;;11.80;99.90;;;;;;5061857;28;20044;-75
2022/11/17 10:36:32;;;;;;;5.90;1.23;;;11.70;99.90;;;;;;5043700;28;20036;-76
2022/11/17 10:38:59;;;;;;;6.63;1.40;;;11.80;99.90;;;;;;5045036;28;20025;-75
2022/11/17 10:41:39;;;;;;;2.72;1.00;;;11.90;99.90;;;;;;5051681;28;20037;-77
2022/11/17 10:44:09;;;;;;;4.20;1.13;;;12.00;99.90;;;;;;5065356;28;20495;-73
2022/11/17 10:46:55;;;;;;;2.78;0.90;;;12.00;99.90;;;;;;5064970;28;20028;-77
2022/11/17 10:49:37;;;;;;;7.45;1.10;;;12.00;99.90;;;;;;5051017;28;20510;-75
2022/11/17 10:52:14;;;;;;;5.30;1.35;;;11.80;99.90;;;;;;5052745;28;20029;-76
2022/11/17 10:54:40;;;;;;;4.80;1.33;;;12.20;99.90;;;;;;5031560;28;20047;-76
2022/11/17 10:57:26;;;;;;;3.25;0.80;;;12.50;99.90;;;;;;5064856;28;20037;-75
2022/11/17 10:59:56;;;;;;;4.00;0.98;;;12.40;99.90;;;;;;5039357;28;20037;-78
2022/11/17 11:02:33;;;;;;;5.13;1.08;;;12.80;99.90;;;;;;5065242;28;20034;-75
2022/11/17 11:05:11;;;;;;;7.00;1.23;;;13.30;99.90;;;;;;5066521;28;20087;-75
2022/11/17 11:07:37;;;;;;;4.75;1.15;;;13.70;99.90;;;;;;5050586;28;20050;-74
2022/11/17 11:10:19;;;;;;;5.88;1.10;;;13.80;99.90;;;;;;5068817;28;20041;-78
2022/11/17 11:13:10;;;;;;;3.33;0.70;;;13.20;99.90;;;;;;5051714;28;20697;-80
2022/11/17 11:15:36;;;;;;;2.95;0.70;;;13.10;99.90;;;;;;5050451;28;20043;-75
2022/11/17 11:18:13;;;;;;;4.47;0.82;;;12.90;99.90;;;;;;5031322;28;20036;-77
2022/11/17 11:21:01;;;;;;;4.28;0.80;;;13.00;99.90;;;;;;5068033;28;20043;-77
2022/11/17 11:23:35;;;;;;;2.20;0.80;;;12.90;99.90;;;;;;5041453;28;20456;-77
2022/11/17 11:26:19;;;;;;;2.63;0.95;;;12.70;99.90;;;;;;5049539;28;20037;-77
2022/11/17 11:29:09;;;;;;;2.53;0.60;;;12.40;99.90;;;;;;5059492;28;20028;-78
2022/11/17 11:31:46;;;;;;;;;;;12.20;99.90;;;;;;5059852;28;20056;-75
2022/11/17 11:34:37;;;;;;;2.72;0.90;;;11.90;99.90;;;;;;5042231;28;19999;-76
2022/11/17 11:37:12;;;;;;;2.70;1.00;;;11.70;99.90;;;;;;5067731;28;20032;-75
2022/11/17 11:40:09;;;;;;;3.75;0.70;;;11.80;99.90;;;;;;5068461;28;20036;-76
2022/11/17 11:42:51;;;;;;;2.95;0.82;;;11.80;99.90;;;;;;5049688;28;20082;-80
2022/11/17 11:45:41;;;;;;;5.90;0.95;;;11.80;99.90;;;;;;5067940;28;20085;-74
2022/11/17 11:48:32;;;;;;;4.10;1.00;;;12.00;99.90;;;;;;5062071;28;20032;-76
2022/11/17 11:51:08;;;;;;;4.50;1.10;;;12.10;99.90;;;;;;5067156;28;20036;-72
2022/11/17 11:53:48;;;;;;;5.78;1.20;;;12.10;99.90;;;;;;5055828;28;20036;-75
2022/11/17 11:56:31;;;;;;;2.97;1.00;;;12.30;99.90;;;;;;5069782;28;20104;-73
2022/11/17 11:59:05;;;;;;;4.38;1.00;;;12.50;99.90;;;;;;5069799;28;20017;-72
2022/11/17 12:01:59;;;;;;;4.72;1.02;;;12.50;99.90;;;;;;5067861;28;20032;-71
2022/11/17 12:04:45;;;;;;;4.10;1.02;;;12.30;99.90;;;;;;5049373;28;20086;-73
2022/11/17 12:07:19;;;;;;;4.65;1.20;;;12.30;99.90;;;;;;5050259;28;20110;-74
2022/11/17 12:10:07;;;;;;;5.35;1.10;;;12.30;99.90;;;;;;5066619;28;20043;-72
2022/11/17 12:12:37;;;;;;;3.75;0.88;;;12.10;99.90;;;;;;5044491;28;20033;-73
2022/11/17 12:15:29;;;;;;;3.95;0.98;;;12.10;99.90;;;;;;5048022;28;20033;-72
2022/11/17 12:18:28;;;;;;;4.18;1.00;;;12.00;99.90;;;;;;5077813;28;20028;-73
2022/11/17 12:20:59;;;;;;;4.93;1.08;;;12.00;99.90;;;;;;5068009;28;20028;-72
2022/11/17 12:23:38;;;;;;;6.38;1.17;;;12.00;99.90;;;;;;5048235;28;20071;-73
2022/11/17 12:26:04;;;;;;;2.92;0.82;;;12.10;99.90;;;;;;5047364;28;20079;-72
2022/11/17 12:28:34;;;;;;;3.35;0.93;;;12.20;99.90;;;;;;5047322;28;20506;-73
2022/11/17 12:31:04;;;;;;;2.75;0.80;;;12.40;99.90;;;;;;5048031;28;20502;-71
2022/11/17 12:33:51;;;;;;;3.90;0.90;;;12.50;99.90;;;;;;5050567;28;20041;-71
2022/11/17 12:36:23;;;;;;;2.20;0.80;;;12.50;99.90;;;;;;5067042;28;20047;-71
2022/11/17 12:38:49;;;;;;;6.10;1.13;;;12.60;99.90;;;;;;5049274;28;20025;-73
2022/11/17 12:41:47;;;;;;;3.67;0.80;;;12.60;99.90;;;;;;5049090;28;20438;-72
2022/11/17 12:44:31;;;;;;;2.97;0.80;;;12.50;99.90;;;;;;5066404;28;20029;-72
2022/11/17 12:47:20;;;;;;;5.82;1.15;;;12.40;99.90;;;;;;5066328;28;20035;-70
2022/11/17 12:50:07;;;;;;;2.63;0.98;;;12.40;99.90;;;;;;5072945;28;20071;-72
2022/11/17 12:52:42;;;;;;;4.30;0.90;;;12.40;99.90;;;;;;5066595;28;20040;-72
2022/11/17 12:55:32;;;;;;;6.47;1.30;;;12.60;99.90;;;;;;5068088;28;20039;-72
2022/11/17 12:58:12;;;;;;;;;;;12.80;99.90;;;;;;5070576;28;20063;-71
2022/11/17 13:01:10;;;;;;;4.05;1.52;;;13.00;99.90;;;;;;5074726;28;19912;-72
2022/11/17 13:03:44;;;;;;;3.17;1.02;;;13.20;99.90;;;;;;5073534;28;20390;-72
2022/11/17 13:06:14;;;;;;;3.83;0.90;;;13.30;99.90;;;;;;5048690;28;20465;-72
2022/11/17 13:08:40;;;;;;;3.42;0.77;;;13.50;99.90;;;;;;5066879;28;20111;-73
2022/11/17 13:11:13;;;;;;;2.88;0.82;;;13.60;99.90;;;;;;5068870;28;20478;-73
2022/11/17 13:13:40;;;;;;;6.25;0.88;;;13.60;99.90;;;;;;5050545;28;20055;-71
2022/11/17 13:16:17;;;;;;;3.78;0.90;;;13.60;99.90;;;;;;5067093;28;20441;-72
2022/11/17 13:18:43;;;;;;;4.75;0.95;;;13.70;99.90;;;;;;5066162;28;20028;-71
2022/11/17 13:21:24;;;;;;;5.45;1.08;;;14.00;99.90;;;;;;5052818;28;22214;-72
2022/11/17 13:23:50;;;;;;;4.28;0.90;;;13.60;99.90;;;;;;5070948;28;20514;-72
2022/11/17 13:26:15;;;;;;;4.38;0.80;;;14.20;99.90;;;;;;5068457;28;20127;-71
2022/11/17 13:28:42;;;;;;;3.70;1.00;;;14.50;99.90;;;;;;5073629;28;20111;-70
2022/11/17 13:31:26;;;;;;;5.97;0.90;;;14.40;99.90;;;;;;5071347;28;20029;-71
2022/11/17 13:34:09;;;;;;;4.93;0.95;;;14.20;99.90;;;;;;5049869;28;20033;-72
2022/11/17 13:36:35;;;;;;;5.43;0.80;;;14.00;99.90;;;;;;5064209;28;20093;-71